Terminal Aerodrome Forecast
Issued by NWS Grand Forks, ND

Home | Current Version | Previous Version | Text Only | Print | Product List | Glossary On
Versions: 1 2 3 4 5 6 7 8 9 10 11 12 13 14 15 16 17
092
FTUS43 KFGF 260520
TAFFAR
TAF
KFAR 260520Z 2606/2706 18007KT P6SM SCT060 WS020/23035KT
     FM261100 20004KT P6SM VCTS BKN060CB
     FM261500 26005KT P6SM SCT250
     FM261800 35005KT P6SM SCT250=

USA.gov is the U.S. government's official web portal to all federal, state and local government web resources and services.